createdAt,value
2023-02-24T00:00:47.234Z,-34.65
2023-02-24T00:01:45.643Z,-34.65
2023-02-24T00:02:45.671Z,-34.65
2023-02-24T00:03:45.668Z,-34.65
2023-02-24T00:04:45.642Z,-34.65
2023-02-24T00:05:45.593Z,-34.65
2023-02-24T00:06:45.572Z,-34.65
2023-02-24T00:07:45.583Z,-34.65
2023-02-24T00:08:45.527Z,-34.65
2023-02-24T00:09:45.555Z,-34.65
2023-02-24T00:10:45.526Z,-34.65
2023-02-24T00:11:45.512Z,-34.65
2023-02-24T00:12:45.514Z,-34.65
2023-02-24T00:13:45.476Z,-34.65
2023-02-24T00:14:45.472Z,-34.65
2023-02-24T00:15:45.454Z,-34.65
2023-02-24T00:16:45.529Z,-34.65
2023-02-24T00:17:45.437Z,-34.65
2023-02-24T00:18:45.417Z,-34.65
2023-02-24T00:19:45.427Z,-34.65
2023-02-24T00:20:45.388Z,-34.65
2023-02-24T00:21:45.383Z,-34.65
2023-02-24T00:22:45.370Z,-34.65
2023-02-24T00:23:45.340Z,-34.65
2023-02-24T00:24:45.334Z,-34.65
2023-02-24T00:25:45.324Z,-34.65
2023-02-24T00:26:45.311Z,-34.65
2023-02-24T00:27:45.300Z,-34.65
2023-02-24T00:28:45.280Z,-34.65
2023-02-24T00:29:45.285Z,-34.65
2023-02-24T00:30:45.318Z,-34.65
2023-02-24T00:31:45.425Z,-34.65
2023-02-24T00:32:45.364Z,-34.65
2023-02-24T00:33:45.275Z,-34.65
2023-02-24T00:34:45.216Z,-34.65
2023-02-24T00:35:45.201Z,-34.65
2023-02-24T00:36:45.181Z,-34.65
2023-02-24T00:37:45.171Z,-34.65
2023-02-24T00:38:45.145Z,-34.65
2023-02-24T00:39:45.136Z,-34.65
2023-02-24T00:40:45.169Z,-34.65
2023-02-24T00:41:45.116Z,-34.65
2023-02-24T00:42:45.107Z,-34.65
2023-02-24T00:43:45.092Z,-34.65
2023-02-24T00:44:45.115Z,-34.65
2023-02-24T00:45:45.072Z,-34.65
2023-02-24T00:46:45.066Z,-34.65
2023-02-24T00:47:45.042Z,-34.65
2023-02-24T00:48:45.020Z,-34.65
2023-02-24T00:49:45.020Z,-34.65
2023-02-24T00:50:45.020Z,-34.65
2023-02-24T00:51:44.994Z,-34.65
2023-02-24T00:52:44.967Z,-34.65
2023-02-24T00:53:44.970Z,-34.65
2023-02-24T00:54:44.947Z,-34.65
2023-02-24T00:55:44.945Z,-34.65
2023-02-24T02:19:04.927Z,1005.43
2023-02-24T02:20:05.762Z,1005.34
2023-02-24T02:21:05.746Z,1005.31
2023-02-24T02:22:05.757Z,1005.32
2023-02-24T02:23:05.717Z,1005.30
2023-02-24T02:24:05.724Z,1005.26
2023-02-24T02:25:05.690Z,1005.25
2023-02-24T02:26:05.674Z,1005.23
2023-02-24T02:27:05.666Z,1005.22
2023-02-24T02:28:05.657Z,1005.20
2023-02-24T02:29:05.655Z,1005.21
2023-02-24T02:30:05.610Z,1005.22
2023-02-24T02:31:05.729Z,1005.19
2023-02-24T02:32:05.762Z,1005.19
2023-02-24T02:33:05.580Z,1005.13
2023-02-24T02:34:05.598Z,1005.14
2023-02-24T02:35:05.558Z,1005.09
2023-02-24T02:36:05.624Z,1005.11
2023-02-24T02:37:05.526Z,1005.08
2023-02-24T02:38:05.530Z,1005.07
2023-02-24T02:39:05.521Z,1005.10
2023-02-24T02:40:05.477Z,1005.04
2023-02-24T02:41:05.470Z,1005.05
2023-02-24T02:42:05.463Z,1005.09
2023-02-24T02:43:05.441Z,1004.97
2023-02-24T02:44:05.445Z,1004.98
2023-02-24T02:45:05.437Z,1005.02
2023-02-24T02:46:05.444Z,1004.95
2023-02-24T02:47:05.392Z,1004.98
2023-02-24T02:48:05.381Z,1004.94
2023-02-24T02:49:05.357Z,1004.94
2023-02-24T02:50:05.380Z,1004.93
2023-02-24T02:51:05.343Z,1004.96
2023-02-24T02:52:05.319Z,1004.95
2023-02-24T02:53:05.332Z,1004.90
2023-02-24T02:54:05.291Z,1004.94
2023-02-24T02:55:05.279Z,1004.89
2023-02-24T02:56:05.261Z,1004.91
2023-02-24T02:57:05.303Z,1004.84
2023-02-24T02:58:05.248Z,1004.88
2023-02-24T02:59:05.232Z,1004.84
2023-02-24T03:00:05.211Z,1004.86
2023-02-24T03:01:05.259Z,1004.80
2023-02-24T03:02:05.182Z,1004.79
2023-02-24T03:03:05.197Z,1004.77
2023-02-24T03:04:05.147Z,1004.82
2023-02-24T03:05:05.321Z,1004.76
2023-02-24T03:06:05.129Z,1004.77
2023-02-24T03:07:05.123Z,1004.78
2023-02-24T03:08:05.120Z,1004.73
2023-02-24T03:09:05.094Z,1004.70
2023-02-24T03:10:05.115Z,1004.68
2023-02-24T03:11:05.078Z,1004.69
2023-02-24T03:12:05.047Z,1004.67
2023-02-24T03:13:05.052Z,1004.71
2023-02-24T03:14:05.008Z,1004.67
2023-02-24T03:15:05.023Z,1004.65
2023-02-24T03:16:04.979Z,1004.65
2023-02-24T03:17:04.980Z,1004.64
2023-02-24T03:18:04.977Z,1004.61
2023-02-24T03:40:34.529Z,1004.40
2023-02-24T03:41:35.398Z,1004.37
2023-02-24T03:42:35.379Z,1004.40
2023-02-24T03:43:35.382Z,1004.33
2023-02-24T03:44:35.364Z,1004.37
2023-02-24T03:45:35.354Z,1004.33
2023-02-24T03:46:35.343Z,1004.28
2023-02-24T03:47:35.315Z,1004.31
2023-02-24T03:48:35.306Z,1004.28
2023-02-24T03:49:35.300Z,1004.36
2023-02-24T03:50:35.274Z,1004.36
2023-02-24T03:51:35.285Z,1004.37
2023-02-24T03:52:35.249Z,1004.36
2023-02-24T03:53:35.243Z,1004.35
2023-02-24T03:54:35.231Z,1004.33
2023-02-24T03:55:35.256Z,1004.30
2023-02-24T03:56:35.190Z,1004.30
2023-02-24T03:57:35.184Z,1004.26
2023-02-24T03:58:35.166Z,1004.30
2023-02-24T03:59:35.162Z,1004.31
2023-02-24T04:00:35.286Z,1004.29
2023-02-24T04:01:35.145Z,1004.27
2023-02-24T04:02:35.153Z,1004.26
2023-02-24T04:03:35.118Z,1004.28
2023-02-24T04:04:35.131Z,1004.32
2023-02-24T04:05:35.083Z,1004.32
2023-02-24T04:06:35.057Z,1004.30
2023-02-24T04:07:35.059Z,1004.37
2023-02-24T04:08:35.033Z,1004.32
2023-02-24T04:09:35.036Z,1004.31
2023-02-24T04:10:35.011Z,1004.30
2023-02-24T04:11:34.995Z,1004.28
2023-02-24T04:12:35.046Z,1004.27
2023-02-24T04:13:34.973Z,1004.30
2023-02-24T04:14:34.960Z,1004.24
2023-02-24T04:15:34.952Z,1004.28
2023-02-24T04:16:34.927Z,1004.28
2023-02-24T04:17:34.919Z,1004.24
2023-02-24T04:18:34.912Z,1004.27
2023-02-24T04:19:34.889Z,1004.24
2023-02-24T04:20:34.930Z,1004.24
2023-02-24T04:21:34.881Z,1004.24
2023-02-24T04:22:34.853Z,1004.22
2023-02-24T04:23:34.824Z,1004.20
2023-02-24T04:24:34.828Z,1004.22
2023-02-24T04:25:34.831Z,1004.18
2023-02-24T04:26:36.203Z,1004.20
2023-02-24T04:27:34.776Z,1004.18
2023-02-24T04:28:34.821Z,1004.17
2023-02-24T04:29:34.766Z,1004.17
2023-02-24T04:30:34.824Z,1004.18
2023-02-24T04:31:34.888Z,1004.15
2023-02-24T04:32:34.850Z,1004.13
2023-02-24T04:33:34.718Z,1004.13
2023-02-24T04:34:34.703Z,1004.18
2023-02-24T04:35:34.708Z,1004.18
2023-02-24T04:36:34.674Z,1004.14
2023-02-24T04:37:34.645Z,1004.09
2023-02-24T04:38:34.654Z,1004.10
2023-02-24T04:39:34.635Z,1004.09
2023-02-24T04:40:34.622Z,1004.07
2023-02-24T04:41:34.600Z,1004.09
2023-02-24T04:42:34.585Z,1004.07
2023-02-24T04:43:34.594Z,1004.07
2023-02-24T04:44:34.568Z,1004.06
2023-02-24T04:45:34.552Z,1004.05
2023-02-24T04:46:34.567Z,1004.02
2023-02-24T04:47:34.544Z,1003.98
2023-02-24T04:48:34.506Z,1003.96
2023-02-24T04:49:34.493Z,1003.95
2023-02-24T04:50:34.490Z,1003.94
2023-02-24T04:51:34.472Z,1003.91
2023-02-24T04:52:34.489Z,1003.94
2023-02-24T04:53:34.467Z,1003.92
2023-02-24T04:54:34.464Z,1003.89
2023-02-24T04:55:34.440Z,1003.85
2023-02-24T04:56:34.407Z,1003.87
2023-02-24T04:57:34.372Z,1003.83
2023-02-24T04:58:34.368Z,1003.85
2023-02-24T04:59:34.356Z,1003.80
2023-02-24T05:00:34.367Z,1003.88
2023-02-24T05:01:34.375Z,1003.85
2023-02-24T05:02:34.356Z,1003.83
2023-02-24T05:03:34.354Z,1003.78
2023-02-24T05:04:34.342Z,1003.78
2023-02-24T05:05:34.319Z,1003.78
2023-02-24T05:06:34.275Z,1003.78
2023-02-24T05:07:34.248Z,1003.76
2023-02-24T05:08:34.329Z,1003.72
2023-02-24T05:09:34.228Z,1003.72
2023-02-24T05:10:34.240Z,1003.70
2023-02-24T05:11:34.198Z,1003.69
2023-02-24T05:12:34.199Z,1003.67
2023-02-24T05:13:34.236Z,1003.70
2023-02-24T05:14:34.157Z,1003.61
2023-02-24T05:15:34.232Z,1003.62
2023-02-24T05:16:34.252Z,1003.60
2023-02-24T05:17:34.121Z,1003.61
2023-02-24T05:18:34.114Z,1003.63
2023-02-24T05:19:34.099Z,1003.64
2023-02-24T05:20:34.105Z,1003.52
2023-02-24T05:21:34.058Z,1003.49
2023-02-24T05:22:34.087Z,1003.48
2023-02-24T05:23:34.072Z,1003.46
2023-02-24T05:24:34.069Z,1003.48
2023-02-24T05:25:34.006Z,1003.45
2023-02-24T05:26:34.019Z,1003.44
2023-02-24T05:27:33.992Z,1003.40
2023-02-24T05:28:33.996Z,1003.39
2023-02-24T05:29:33.973Z,1003.40
2023-02-24T05:30:34.001Z,1003.36
2023-02-24T05:31:34.020Z,1003.32
2023-02-24T05:32:34.055Z,1003.34
2023-02-24T05:33:33.907Z,1003.29
2023-02-24T05:34:33.911Z,1003.29
2023-02-24T05:35:33.890Z,1003.33
2023-02-24T05:36:33.890Z,1003.26
2023-02-24T05:37:33.856Z,1003.32
2023-02-24T05:38:33.871Z,1003.27
2023-02-24T05:39:33.832Z,1003.22
2023-02-24T05:40:33.839Z,1003.24
2023-02-24T05:41:33.817Z,1003.25
2023-02-24T05:42:33.794Z,1003.19
2023-02-24T05:43:33.775Z,1003.19
2023-02-24T05:44:33.778Z,1003.22
2023-02-24T05:45:33.748Z,1003.17
2023-02-24T05:46:33.826Z,1003.12
2023-02-24T05:47:33.714Z,1003.08
2023-02-24T05:48:33.702Z,1003.08
2023-02-24T05:49:33.690Z,1003.09
2023-02-24T05:50:33.703Z,1003.06
2023-02-24T05:51:33.723Z,1003.07
2023-02-24T05:52:33.665Z,1003.06
2023-02-24T05:53:33.773Z,1003.03
2023-02-24T05:54:33.646Z,1002.98
2023-02-24T05:55:33.620Z,1002.97
2023-02-24T05:56:33.598Z,1002.96
2023-02-24T05:57:33.578Z,1002.94
2023-02-24T05:58:33.584Z,1002.90
2023-02-24T05:59:33.732Z,1002.87
2023-02-24T06:00:33.548Z,1002.90
2023-02-24T06:01:33.551Z,1002.87
2023-02-24T06:02:33.560Z,1002.87
2023-02-24T06:03:34.611Z,1002.81
2023-02-24T06:04:33.490Z,1002.81
2023-02-24T06:05:33.478Z,1002.74
2023-02-24T06:06:33.495Z,1002.74
2023-02-24T06:07:33.453Z,1002.70
2023-02-24T06:08:33.438Z,1002.70
2023-02-24T06:09:33.417Z,1002.70
2023-02-24T06:10:33.413Z,1002.71
2023-02-24T06:11:33.417Z,1002.66
2023-02-24T06:12:33.379Z,1002.64
2023-02-24T06:13:33.369Z,1002.65
2023-02-24T06:14:33.377Z,1002.60
2023-02-24T06:15:33.422Z,1002.62
2023-02-24T06:16:33.430Z,1002.63
2023-02-24T06:17:33.345Z,1002.61
2023-02-24T06:18:33.305Z,1002.62
2023-02-24T06:19:33.287Z,1002.62
2023-02-24T06:20:33.303Z,1002.64
2023-02-24T06:21:33.283Z,1002.60
2023-02-24T06:22:33.336Z,1002.57
2023-02-24T06:23:33.235Z,1002.58
2023-02-24T06:24:33.220Z,1002.54
2023-02-24T06:25:33.231Z,1002.49
2023-02-24T06:26:33.256Z,1002.52
2023-02-24T06:27:33.182Z,1002.51
2023-02-24T06:28:33.169Z,1002.53
2023-02-24T06:29:33.181Z,1002.50
2023-02-24T06:30:33.189Z,1002.48
2023-02-24T06:31:33.174Z,1002.53
2023-02-24T06:32:33.253Z,1002.46
2023-02-24T06:33:33.130Z,1002.44
2023-02-24T06:34:33.097Z,1002.45
2023-02-24T06:35:33.094Z,1002.43
2023-02-24T06:36:33.083Z,1002.44
2023-02-24T06:37:33.084Z,1002.46
2023-02-24T06:38:33.064Z,1002.40
2023-02-24T06:39:34.940Z,1002.41
2023-02-24T06:40:33.072Z,1002.39
2023-02-24T06:41:33.088Z,1002.38
2023-02-24T06:42:33.007Z,1002.40
2023-02-24T06:43:32.970Z,1002.35
2023-02-24T06:44:32.980Z,1002.42
2023-02-24T06:45:32.942Z,1002.41
2023-02-24T06:46:32.942Z,1002.36
2023-02-24T06:47:32.917Z,1002.35
2023-02-24T06:48:32.935Z,1002.37
2023-02-24T06:49:33.992Z,1002.35
2023-02-24T06:50:32.890Z,1002.32
2023-02-24T06:51:32.884Z,1002.31
2023-02-24T06:52:32.879Z,1002.33
2023-02-24T06:53:32.833Z,1002.21
2023-02-24T06:54:32.917Z,1002.27
2023-02-24T06:55:32.809Z,1002.24
2023-02-24T06:56:32.807Z,1002.20
2023-02-24T06:57:32.875Z,1002.24
2023-02-24T06:58:32.809Z,1002.18
2023-02-24T06:59:32.773Z,1002.19
2023-02-24T07:00:32.757Z,1002.22
2023-02-24T07:01:32.807Z,1002.19
2023-02-24T07:02:32.842Z,1002.13
2023-02-24T07:03:32.765Z,1002.15
2023-02-24T07:04:32.766Z,1002.15
2023-02-24T07:05:32.675Z,1002.13
2023-02-24T07:06:32.769Z,1002.09
2023-02-24T07:07:32.652Z,1002.07
2023-02-24T07:08:32.653Z,1002.10
2023-02-24T07:09:54.797Z,1002.12
2023-02-24T07:10:32.643Z,1002.14
2023-02-24T07:11:32.680Z,1002.11
2023-02-24T07:12:32.595Z,1002.09
2023-02-24T07:13:32.582Z,1002.06
2023-02-24T07:14:32.563Z,1002.10
2023-02-24T07:15:32.587Z,1002.05
2023-02-24T07:16:32.553Z,1002.02
2023-02-24T07:17:32.537Z,1002.00
2023-02-24T07:18:32.502Z,1001.98
2023-02-24T07:19:32.590Z,1001.89
2023-02-24T07:20:32.560Z,1001.89
2023-02-24T07:21:32.463Z,1001.89
2023-02-24T07:22:32.458Z,1001.84
2023-02-24T07:23:32.495Z,1001.86
2023-02-24T07:24:32.447Z,1001.83
2023-02-24T07:25:32.421Z,1001.82
2023-02-24T07:26:32.407Z,1001.79
2023-02-24T07:27:32.429Z,1001.76
2023-02-24T07:28:32.371Z,1001.77
2023-02-24T07:29:32.406Z,1001.75
2023-02-24T07:30:32.495Z,1001.79
2023-02-24T07:31:32.513Z,1001.70
2023-02-24T07:32:32.330Z,1001.70
2023-02-24T07:33:32.317Z,1001.66
2023-02-24T07:34:32.341Z,1001.66
2023-02-24T07:35:32.312Z,1001.66
2023-02-24T07:36:32.272Z,1001.62
2023-02-24T07:37:32.270Z,1001.60
2023-02-24T07:38:32.228Z,1001.59
2023-02-24T07:39:32.272Z,1001.61
2023-02-24T07:40:32.225Z,1001.54
2023-02-24T07:41:32.236Z,1001.56
2023-02-24T07:42:32.193Z,1001.49
2023-02-24T07:43:32.165Z,1001.48
2023-02-24T07:44:32.156Z,1001.46
2023-02-24T07:45:32.237Z,1001.35
2023-02-24T07:46:32.275Z,1001.38
2023-02-24T07:47:32.112Z,1001.41
2023-02-24T07:48:32.106Z,1001.41
2023-02-24T07:49:32.163Z,1001.39
2023-02-24T07:50:32.079Z,1001.38
2023-02-24T07:51:32.077Z,1001.37
2023-02-24T07:52:32.059Z,1001.33
2023-02-24T07:53:32.040Z,1001.28
2023-02-24T07:54:32.023Z,1001.28
2023-02-24T07:55:32.058Z,1001.30
2023-02-24T07:56:32.019Z,1001.29
2023-02-24T07:57:31.976Z,1001.27
2023-02-24T07:58:32.008Z,1001.26
2023-02-24T07:59:31.949Z,1001.30
2023-02-24T08:00:31.936Z,1001.29
2023-02-24T08:01:31.925Z,1001.28
2023-02-24T08:02:32.016Z,1001.26
2023-02-24T08:03:32.007Z,1001.20
2023-02-24T08:04:31.900Z,1001.19
2023-02-24T08:05:31.920Z,1001.15
2023-02-24T08:06:31.852Z,1001.16
2023-02-24T08:07:32.067Z,1001.19
2023-02-24T08:08:31.876Z,1001.15
2023-02-24T08:09:31.821Z,1001.16
2023-02-24T08:10:31.800Z,1001.25
2023-02-24T08:11:31.820Z,1001.20
2023-02-24T08:12:31.778Z,1001.22
2023-02-24T08:13:31.798Z,1001.19
2023-02-24T08:14:31.767Z,1001.21
2023-02-24T08:15:31.802Z,1001.21
2023-02-24T08:16:31.726Z,1001.13
2023-02-24T08:17:31.781Z,1001.15
2023-02-24T08:18:31.763Z,1001.07
2023-02-24T08:19:31.696Z,1001.06
2023-02-24T08:20:31.668Z,1001.06
2023-02-24T08:21:31.658Z,1001.08
2023-02-24T08:22:31.641Z,1001.04
2023-02-24T08:23:31.716Z,1001.06
2023-02-24T08:24:31.621Z,1001.03
2023-02-24T08:25:31.633Z,1000.95
2023-02-24T08:26:31.854Z,1000.96
2023-02-24T08:27:31.707Z,1000.98
2023-02-24T08:28:31.630Z,1000.95
2023-02-24T08:29:31.560Z,1000.96
2023-02-24T08:30:31.585Z,1000.90
2023-02-24T08:31:31.617Z,1000.91
2023-02-24T08:32:31.621Z,1000.82
2023-02-24T08:33:31.588Z,1000.83
2023-02-24T08:34:31.566Z,1000.81
2023-02-24T08:35:31.472Z,1000.84
2023-02-24T08:36:31.528Z,1000.78
2023-02-24T08:37:31.438Z,1000.81
2023-02-24T08:38:31.428Z,1000.79
2023-02-24T08:39:30.419Z,1000.80
2023-02-24T08:40:31.446Z,1000.77
2023-02-24T08:41:31.393Z,1000.83
2023-02-24T08:42:31.403Z,1000.78
2023-02-24T08:43:31.381Z,1000.77
2023-02-24T08:44:31.355Z,1000.78
2023-02-24T08:45:31.338Z,1000.75
2023-02-24T08:46:31.389Z,1000.76
2023-02-24T08:47:31.316Z,1000.77
2023-02-24T08:48:31.306Z,1000.75
2023-02-24T08:49:31.284Z,1000.70
2023-02-24T08:50:31.291Z,1000.76
2023-02-24T08:51:31.264Z,1000.73
2023-02-24T08:52:32.433Z,1000.69
2023-02-24T08:53:31.260Z,1000.68
2023-02-24T08:54:31.237Z,1000.61
2023-02-24T08:55:31.220Z,1000.60
2023-02-24T08:56:31.201Z,1000.65
2023-02-24T08:57:31.198Z,1000.65
2023-02-24T08:58:31.208Z,1000.55
2023-02-24T08:59:31.192Z,1000.58
2023-02-24T09:00:31.249Z,1000.52
2023-02-24T09:01:31.133Z,1000.50
2023-02-24T09:02:31.156Z,1000.48
2023-02-24T09:03:31.123Z,1000.48
2023-02-24T09:04:31.193Z,1000.46
2023-02-24T09:05:31.081Z,1000.46
2023-02-24T09:06:31.063Z,1000.53
2023-02-24T09:07:31.054Z,1000.51
2023-02-24T09:08:31.098Z,1000.50
2023-02-24T09:09:31.111Z,1000.44
2023-02-24T09:10:31.018Z,1000.42
2023-02-24T09:11:31.010Z,1000.38
2023-02-24T09:12:30.992Z,1000.37
2023-02-24T09:13:30.990Z,1000.28
2023-02-24T09:14:30.991Z,1000.22
2023-02-24T09:15:30.954Z,1000.21
2023-02-24T09:16:31.651Z,1000.27
2023-02-24T09:17:30.981Z,1000.12
2023-02-24T09:18:30.923Z,1000.11
2023-02-24T09:19:30.907Z,1000.10
2023-02-24T09:20:30.891Z,1000.15
2023-02-24T09:21:30.876Z,1000.09
2023-02-24T09:22:30.873Z,1000.07
2023-02-24T09:23:30.865Z,1000.06
2023-02-24T09:24:30.876Z,1000.06
2023-02-24T09:25:30.964Z,1000.07
2023-02-24T09:26:30.879Z,1000.04
2023-02-24T09:27:30.819Z,1000.01
2023-02-24T09:28:30.857Z,999.99
2023-02-24T09:29:30.811Z,999.99
2023-02-24T09:30:30.752Z,1000.00
2023-02-24T09:31:30.874Z,999.99
2023-02-24T09:32:31.014Z,999.97
2023-02-24T09:33:30.715Z,999.93
2023-02-24T09:34:30.737Z,999.91
2023-02-24T09:35:30.733Z,999.91
2023-02-24T09:36:30.683Z,999.98
2023-02-24T09:37:30.643Z,999.88
2023-02-24T09:38:30.654Z,999.93
2023-02-24T09:39:30.652Z,999.87
2023-02-24T09:40:30.661Z,999.82
2023-02-24T09:41:31.034Z,999.83
2023-02-24T09:42:30.615Z,999.77
2023-02-24T09:43:30.599Z,999.82
2023-02-24T09:44:30.592Z,999.81
2023-02-24T09:45:30.686Z,999.74
2023-02-24T09:46:30.724Z,999.77
2023-02-24T09:47:30.531Z,999.76
2023-02-24T09:48:30.512Z,999.72
2023-02-24T09:49:30.514Z,999.70
2023-02-24T09:50:59.063Z,999.63
2023-02-24T09:51:30.502Z,999.65
2023-02-24T09:52:30.459Z,999.68
2023-02-24T09:53:30.520Z,999.65
2023-02-24T09:54:30.501Z,999.60
2023-02-24T09:55:30.431Z,999.58
2023-02-24T09:56:30.415Z,999.61
2023-02-24T09:57:30.458Z,999.56
2023-02-24T09:58:43.076Z,999.54
2023-02-24T09:59:30.385Z,999.56
2023-02-24T10:00:30.401Z,999.51
2023-02-24T10:01:30.453Z,999.51
2023-02-24T10:02:30.425Z,999.55
2023-02-24T10:03:30.308Z,999.56
2023-02-24T10:04:30.347Z,999.51
2023-02-24T10:05:30.302Z,999.43
2023-02-24T10:06:30.275Z,999.39
2023-02-24T10:07:30.256Z,999.37
2023-02-24T10:08:30.269Z,999.35
2023-02-24T10:09:30.223Z,999.38
2023-02-24T10:10:30.246Z,999.39
2023-02-24T10:11:30.214Z,999.40
2023-02-24T10:12:30.201Z,999.29
2023-02-24T10:13:30.321Z,999.37
2023-02-24T10:14:42.707Z,999.32
2023-02-24T10:15:30.348Z,999.28
2023-02-24T10:16:30.195Z,999.25
2023-02-24T10:17:30.123Z,999.21
2023-02-24T10:18:30.131Z,999.22
2023-02-24T10:19:30.119Z,999.22
2023-02-24T10:20:30.096Z,999.26
2023-02-24T10:21:30.083Z,999.23
2023-02-24T10:22:30.080Z,999.20
2023-02-24T10:23:30.077Z,999.19
2023-02-24T10:24:30.061Z,999.12
2023-02-24T10:25:30.052Z,999.18
2023-02-24T10:26:30.014Z,999.20
2023-02-24T10:27:30.081Z,999.17
2023-02-24T10:28:30.013Z,999.15
2023-02-24T10:29:29.997Z,999.15
2023-02-24T10:30:30.029Z,999.16
2023-02-24T10:31:30.108Z,999.03
2023-02-24T10:32:30.052Z,999.03
2023-02-24T10:33:30.046Z,999.07
2023-02-24T10:34:29.912Z,999.07
2023-02-24T10:35:29.921Z,999.04
2023-02-24T10:36:29.880Z,999.08
2023-02-24T10:37:29.901Z,999.02
2023-02-24T10:38:29.889Z,999.03
2023-02-24T10:39:29.963Z,999.00
2023-02-24T10:40:29.919Z,998.98
2023-02-24T10:41:29.825Z,999.00
2023-02-24T10:42:29.831Z,999.02
2023-02-24T10:43:30.066Z,998.92
2023-02-24T10:44:29.816Z,998.95
2023-02-24T10:45:34.699Z,998.91
2023-02-24T10:46:40.651Z,998.85
2023-02-24T10:47:29.740Z,998.86
2023-02-24T10:48:41.438Z,998.83
2023-02-24T10:49:29.716Z,998.86
2023-02-24T10:50:32.195Z,998.84
2023-02-24T10:51:29.694Z,998.88
2023-02-24T10:52:29.680Z,998.82
2023-02-24T10:53:29.668Z,998.80
2023-02-24T10:54:29.676Z,998.81
2023-02-24T10:55:29.656Z,998.80
2023-02-24T10:56:29.607Z,998.72
2023-02-24T10:57:29.594Z,998.78
2023-02-24T10:58:29.601Z,998.78
2023-02-24T10:59:29.629Z,998.81
2023-02-24T11:00:29.564Z,998.78
2023-02-24T11:01:29.607Z,998.70
2023-02-24T11:02:29.911Z,998.66
2023-02-24T11:03:32.937Z,998.80
2023-02-24T11:04:29.507Z,998.61
2023-02-24T11:05:29.493Z,998.64
2023-02-24T11:06:29.476Z,998.62
2023-02-24T11:07:29.467Z,998.63
2023-02-24T11:08:29.480Z,998.61
2023-02-24T11:09:29.463Z,998.60
2023-02-24T11:10:29.424Z,998.59
2023-02-24T11:11:29.426Z,998.54
2023-02-24T11:12:29.394Z,998.53
2023-02-24T11:13:29.404Z,998.51
2023-02-24T11:14:29.381Z,998.47
2023-02-24T11:15:29.465Z,998.40
2023-02-24T11:16:29.411Z,998.46
2023-02-24T11:17:29.382Z,998.42
2023-02-24T11:18:29.382Z,998.35
2023-02-24T11:19:29.309Z,998.29
2023-02-24T11:20:39.222Z,998.35
2023-02-24T11:21:29.278Z,998.35
2023-02-24T11:22:29.252Z,998.22
2023-02-24T11:23:29.246Z,998.25
2023-02-24T11:24:29.396Z,998.27
2023-02-24T11:25:29.216Z,998.28
2023-02-24T11:26:29.214Z,998.24
2023-02-24T11:27:29.238Z,998.21
2023-02-24T11:28:29.192Z,998.24
2023-02-24T11:29:29.218Z,998.23
2023-02-24T11:30:29.173Z,998.27
2023-02-24T11:31:29.324Z,998.19
2023-02-24T11:32:29.237Z,998.11
2023-02-24T11:33:29.124Z,998.09
2023-02-24T11:34:29.355Z,998.09
2023-02-24T11:35:29.076Z,998.16
2023-02-24T11:36:29.097Z,998.13
2023-02-24T11:37:29.063Z,998.13
2023-02-24T11:38:29.054Z,998.08
2023-02-24T11:39:29.034Z,997.96
2023-02-24T11:40:29.030Z,998.02
2023-02-24T11:41:29.017Z,997.99
2023-02-24T11:42:28.994Z,997.97
2023-02-24T11:43:29.014Z,997.95
2023-02-24T11:44:28.975Z,997.88
2023-02-24T11:45:28.950Z,997.87
2023-02-24T11:46:29.047Z,997.90
2023-02-24T11:47:28.945Z,997.83
2023-02-24T11:48:28.937Z,997.83
2023-02-24T11:49:28.895Z,997.80
2023-02-24T11:50:28.977Z,997.82
2023-02-24T11:51:28.897Z,997.80
2023-02-24T11:52:28.859Z,997.78
2023-02-24T11:53:28.844Z,997.73
2023-02-24T11:54:28.830Z,997.68
2023-02-24T11:55:28.823Z,997.67
2023-02-24T11:56:29.417Z,997.64
2023-02-24T11:57:29.087Z,997.53
2023-02-24T11:58:28.967Z,997.67
2023-02-24T11:59:28.867Z,997.57
2023-02-24T12:00:28.967Z,997.63
2023-02-24T12:01:28.764Z,997.46
2023-02-24T12:02:29.066Z,997.51
2023-02-24T12:03:28.709Z,997.54
2023-02-24T12:04:28.709Z,997.46
2023-02-24T12:05:28.720Z,997.41
2023-02-24T12:06:28.893Z,997.44
2023-02-24T12:07:28.720Z,997.50
2023-02-24T12:08:29.201Z,997.46
2023-02-24T12:09:28.894Z,997.42
2023-02-24T12:10:28.658Z,997.41
2023-02-24T12:11:29.046Z,997.33
2023-02-24T12:12:28.687Z,997.33
2023-02-24T12:13:28.568Z,997.39
2023-02-24T12:14:28.795Z,997.38
2023-02-24T12:15:28.558Z,997.31
2023-02-24T12:16:28.589Z,997.25
2023-02-24T12:17:28.627Z,997.32
2023-02-24T12:18:28.513Z,997.22
2023-02-24T12:19:28.609Z,997.18
2023-02-24T12:20:28.487Z,997.27
2023-02-24T12:21:28.487Z,997.11
2023-02-24T12:22:28.487Z,997.16
2023-02-24T12:23:28.453Z,997.12
2023-02-24T12:24:28.435Z,997.19
2023-02-24T12:25:28.423Z,997.14
2023-02-24T12:26:28.419Z,997.18
2023-02-24T12:27:28.390Z,997.17
2023-02-24T12:28:28.464Z,997.04
2023-02-24T12:29:28.377Z,997.13
2023-02-24T12:30:28.425Z,997.02
2023-02-24T12:31:28.531Z,996.96
2023-02-24T12:32:28.500Z,996.95
2023-02-24T12:33:28.315Z,996.94
2023-02-24T12:34:28.302Z,996.98
2023-02-24T12:35:28.283Z,997.00
2023-02-24T12:36:30.881Z,997.03
2023-02-24T12:37:42.911Z,996.99
2023-02-24T12:38:28.252Z,996.96
2023-02-24T12:39:28.391Z,996.95
2023-02-24T12:40:28.235Z,997.01
2023-02-24T12:41:28.196Z,996.91
2023-02-24T12:44:58.374Z,996.97
2023-02-24T12:45:58.386Z,996.99
2023-02-24T12:46:58.184Z,996.94
2023-02-24T12:47:58.168Z,996.98
2023-02-24T12:48:58.178Z,996.94
2023-02-24T12:49:58.151Z,996.92
2023-02-24T12:50:58.156Z,996.95
2023-02-24T12:51:58.085Z,996.90
2023-02-24T12:52:58.086Z,996.95
2023-02-24T12:53:58.070Z,996.89
2023-02-24T12:54:58.064Z,996.90
2023-02-24T12:55:58.041Z,996.84
2023-02-24T12:56:58.042Z,996.83
2023-02-24T12:57:58.016Z,996.89
2023-02-24T12:58:58.039Z,996.85
2023-02-24T12:59:58.276Z,996.86
2023-02-24T13:00:58.059Z,996.83
2023-02-24T13:01:58.037Z,996.82
2023-02-24T13:02:57.962Z,996.80
2023-02-24T13:03:57.932Z,996.83
2023-02-24T13:04:57.922Z,996.77
2023-02-24T13:05:57.926Z,996.80
2023-02-24T13:06:57.894Z,996.81
2023-02-24T13:07:57.891Z,996.77
2023-02-24T13:08:57.867Z,996.75
2023-02-24T13:09:57.887Z,996.74
2023-02-24T13:10:57.853Z,996.76
2023-02-24T13:11:57.837Z,996.68
2023-02-24T13:12:57.827Z,996.72
2023-02-24T13:13:57.834Z,996.69
2023-02-24T13:14:57.796Z,996.65
2023-02-24T13:15:57.802Z,996.68
2023-02-24T13:16:57.836Z,996.64
2023-02-24T13:17:58.394Z,996.61
2023-02-24T13:18:57.734Z,996.61
2023-02-24T13:19:57.719Z,996.63
2023-02-24T13:20:57.714Z,996.63
2023-02-24T13:21:57.688Z,996.55
2023-02-24T13:22:57.766Z,996.55
2023-02-24T13:23:58.336Z,996.52
2023-02-24T13:24:57.647Z,996.59
2023-02-24T13:25:57.709Z,996.49
2023-02-24T13:26:57.616Z,996.61
2023-02-24T13:27:57.649Z,996.52
2023-02-24T13:28:57.594Z,996.54
2023-02-24T13:29:57.960Z,996.50
2023-02-24T13:30:57.624Z,996.48
2023-02-24T13:31:57.691Z,996.45
2023-02-24T13:32:57.701Z,996.43
2023-02-24T13:33:57.566Z,996.44
2023-02-24T13:34:57.631Z,996.40
2023-02-24T13:35:57.570Z,996.34
2023-02-24T13:36:57.544Z,996.34
2023-02-24T13:37:57.484Z,996.29
2023-02-24T13:38:57.489Z,996.24
2023-02-24T13:39:57.474Z,996.26
2023-02-24T13:40:57.652Z,996.25
2023-02-24T13:41:57.535Z,996.26
2023-02-24T13:42:57.450Z,996.22
2023-02-24T13:43:57.421Z,996.21
2023-02-24T13:44:57.383Z,996.25
2023-02-24T13:45:57.420Z,996.19
2023-02-24T13:46:57.354Z,996.17
2023-02-24T13:48:00.671Z,996.13
2023-02-24T13:48:57.499Z,996.22
2023-02-24T13:49:57.326Z,996.16
2023-02-24T13:50:57.297Z,996.18
2023-02-24T13:51:57.329Z,996.15
2023-02-24T13:52:57.296Z,996.14
2023-02-24T13:53:57.688Z,996.05
2023-02-24T13:54:57.310Z,996.00
2023-02-24T13:55:57.239Z,995.98
2023-02-24T13:56:57.255Z,996.03
2023-02-24T13:57:57.216Z,995.96
2023-02-24T13:58:57.215Z,995.96
2023-02-24T13:59:57.757Z,995.92
2023-02-24T14:00:57.181Z,995.93
2023-02-24T14:01:57.145Z,995.87